createdAt,value
2024-04-18T00:01:39.600Z,3.20
2024-04-18T00:04:09.625Z,3.30
2024-04-18T00:06:37.005Z,3.20
2024-04-18T00:09:09.591Z,3.10
2024-04-18T00:11:39.499Z,3.20
2024-04-18T00:14:06.767Z,3.20
2024-04-18T00:16:36.673Z,3.30
2024-04-18T00:19:03.992Z,3.30
2024-04-18T00:21:34.709Z,3.40
2024-04-18T00:24:02.171Z,3.40
2024-04-18T00:26:35.873Z,3.40
2024-04-18T00:29:03.110Z,3.40
2024-04-18T00:31:32.928Z,3.40
2024-04-18T00:34:00.468Z,3.40
2024-04-18T00:36:30.467Z,3.40
2024-04-18T00:38:57.782Z,3.40
2024-04-18T00:41:27.637Z,3.40
2024-04-18T00:43:59.546Z,3.40
2024-04-18T00:46:30.718Z,3.40
2024-04-18T00:48:58.212Z,3.40
2024-04-18T00:51:28.336Z,3.40
2024-04-18T00:53:57.140Z,3.40
2024-04-18T00:56:27.251Z,3.50
2024-04-18T00:58:57.200Z,3.50
2024-04-18T01:01:29.431Z,3.50
2024-04-18T01:03:58.006Z,3.40
2024-04-18T01:06:29.346Z,3.50
2024-04-18T01:08:57.444Z,3.50
2024-04-18T01:11:27.351Z,3.60
2024-04-18T01:13:57.279Z,3.70
2024-04-18T01:16:27.120Z,3.80
2024-04-18T01:18:54.413Z,3.90
2024-04-18T01:21:24.448Z,3.90
2024-04-18T01:23:51.692Z,3.90
2024-04-18T01:26:24.292Z,3.90
2024-04-18T01:28:51.747Z,3.90
2024-04-18T01:31:21.912Z,3.90
2024-04-18T01:33:49.282Z,3.90
2024-04-18T01:36:19.876Z,3.70
2024-04-18T01:38:47.085Z,3.70
2024-04-18T01:41:17.658Z,3.80
2024-04-18T01:43:47.601Z,3.90
2024-04-18T01:46:17.472Z,3.90
2024-04-18T01:48:47.675Z,3.90
2024-04-18T01:51:17.630Z,3.90
2024-04-18T01:53:44.958Z,3.80
2024-04-18T01:56:14.831Z,3.90
2024-04-18T01:58:42.160Z,3.90
2024-04-18T02:01:14.678Z,3.80
2024-04-18T02:03:42.124Z,3.70
2024-04-18T02:06:12.159Z,3.70
2024-04-18T02:08:39.440Z,3.70
2024-04-18T02:11:09.315Z,3.80
2024-04-18T02:13:36.852Z,3.70
2024-04-18T02:16:08.215Z,3.80
2024-04-18T02:18:38.064Z,3.80
2024-04-18T02:21:08.518Z,3.90
2024-04-18T02:23:36.467Z,3.90
2024-04-18T02:26:06.297Z,4.00
2024-04-18T02:28:33.518Z,4.00
2024-04-18T02:31:04.935Z,4.00
2024-04-18T02:33:33.504Z,4.10
2024-04-18T02:36:06.169Z,4.10
2024-04-18T02:38:33.863Z,4.00
2024-04-18T02:41:08.827Z,4.00
2024-04-18T02:43:36.088Z,4.00
2024-04-18T02:46:06.096Z,4.00
2024-04-18T02:48:34.101Z,4.00
2024-04-18T02:51:11.502Z,3.90
2024-04-18T02:53:38.773Z,3.80
2024-04-18T02:56:09.278Z,3.80
2024-04-18T02:58:36.743Z,3.80
2024-04-18T03:01:07.095Z,3.90
2024-04-18T03:03:34.425Z,3.80
2024-04-18T03:06:08.226Z,3.80
2024-04-18T03:08:35.464Z,3.80
2024-04-18T03:11:05.365Z,3.80
2024-04-18T03:13:32.721Z,3.70
2024-04-18T03:16:02.579Z,3.70
2024-04-18T03:18:30.477Z,3.80
2024-04-18T03:21:00.388Z,3.70
2024-04-18T03:23:30.220Z,3.70
2024-04-18T03:26:00.044Z,3.80
2024-04-18T03:28:27.405Z,3.70
2024-04-18T03:30:57.320Z,3.80
2024-04-18T03:33:24.608Z,3.70
2024-04-18T03:35:54.456Z,3.60
2024-04-18T03:38:24.311Z,3.50
2024-04-18T03:41:03.582Z,3.50
2024-04-18T03:43:34.499Z,3.40
2024-04-18T03:46:04.846Z,3.50
2024-04-18T03:48:34.834Z,3.60
2024-04-18T03:51:02.243Z,3.60
2024-04-18T03:53:32.058Z,3.60
2024-04-18T03:56:01.945Z,3.70
2024-04-18T03:58:31.828Z,3.70
2024-04-18T04:00:59.160Z,3.70
2024-04-18T04:03:30.833Z,3.60
2024-04-18T04:05:58.204Z,3.60
2024-04-18T04:08:28.052Z,3.60
2024-04-18T04:10:55.475Z,3.50
2024-04-18T04:13:27.969Z,3.50
2024-04-18T04:16:06.015Z,3.50
2024-04-18T04:18:36.189Z,3.40
2024-04-18T04:21:03.670Z,3.50
2024-04-18T04:23:34.185Z,3.40
2024-04-18T04:26:02.335Z,3.40
2024-04-18T04:28:34.850Z,3.40
2024-04-18T04:31:02.167Z,3.30
2024-04-18T04:33:34.648Z,3.30
2024-04-18T04:36:01.948Z,3.30
2024-04-18T04:38:31.764Z,3.40
2024-04-18T04:41:01.643Z,3.30
2024-04-18T04:43:31.458Z,3.30
2024-04-18T04:46:01.455Z,3.30
2024-04-18T04:48:29.765Z,3.40
2024-04-18T04:51:03.177Z,3.50
2024-04-18T04:53:30.389Z,3.40
2024-04-18T04:56:00.618Z,3.40
2024-04-18T04:58:28.163Z,3.40
2024-04-18T05:01:00.725Z,3.40
2024-04-18T05:03:28.144Z,3.30
2024-04-18T05:05:58.068Z,3.40
2024-04-18T05:08:25.332Z,3.40
2024-04-18T05:10:55.193Z,3.40
2024-04-18T05:13:22.464Z,3.50
2024-04-18T05:15:52.335Z,3.40
2024-04-18T05:18:22.250Z,3.40
2024-04-18T05:20:52.050Z,3.40
2024-04-18T05:23:19.475Z,3.40
2024-04-18T05:25:49.590Z,3.40
2024-04-18T05:28:21.240Z,3.60
2024-04-18T05:31:06.805Z,3.70
2024-04-18T05:33:39.710Z,3.70
2024-04-18T05:36:10.847Z,3.80
2024-04-18T05:38:40.658Z,3.80
2024-04-18T05:41:10.503Z,3.80
2024-04-18T05:43:40.356Z,3.80
2024-04-18T05:46:10.626Z,3.90
2024-04-18T05:48:43.146Z,3.90
2024-04-18T05:51:12.970Z,3.90
2024-04-18T05:53:43.722Z,3.90
2024-04-18T05:56:13.581Z,4.00
2024-04-18T05:58:45.904Z,4.00
2024-04-18T06:01:15.886Z,4.10
2024-04-18T06:03:48.418Z,4.20
2024-04-18T06:06:18.336Z,4.30
2024-04-18T06:08:48.200Z,4.30
2024-04-18T06:11:19.859Z,4.40
2024-04-18T06:13:49.729Z,4.40
2024-04-18T06:16:19.617Z,4.30
2024-04-18T06:18:52.193Z,4.30
2024-04-18T06:21:22.185Z,4.30
2024-04-18T06:23:52.131Z,4.40
2024-04-18T06:26:22.356Z,4.40
2024-04-18T06:28:52.463Z,4.40
2024-04-18T06:31:23.022Z,4.40
2024-04-18T06:33:55.680Z,4.30
2024-04-18T06:36:25.758Z,4.30
2024-04-18T06:38:55.615Z,4.30
2024-04-18T06:41:25.572Z,4.30
2024-04-18T06:43:55.394Z,4.30
2024-04-18T06:46:25.193Z,4.30
2024-04-18T06:48:57.773Z,4.40
2024-04-18T06:51:28.715Z,4.50
2024-04-18T06:53:58.558Z,4.60
2024-04-18T06:56:28.440Z,4.60
2024-04-18T06:58:58.386Z,4.80
2024-04-18T07:01:28.277Z,4.70
2024-04-18T07:04:00.913Z,4.60
2024-04-18T07:06:30.852Z,4.60
2024-04-18T07:09:00.712Z,4.40
2024-04-18T07:11:30.629Z,4.30
2024-04-18T07:14:01.285Z,3.90
2024-04-18T07:16:32.422Z,3.80
2024-04-18T07:19:02.359Z,3.80
2024-04-18T07:21:32.224Z,3.70
2024-04-18T07:24:02.338Z,3.70
2024-04-18T07:26:32.211Z,3.60
2024-04-18T07:28:59.420Z,3.70
2024-04-18T07:31:29.231Z,3.70
2024-04-18T07:33:59.165Z,3.70
2024-04-18T07:36:31.722Z,3.70
2024-04-18T07:39:01.589Z,3.70
2024-04-18T07:41:31.505Z,3.70
2024-04-18T07:44:01.335Z,3.70
2024-04-18T07:46:33.549Z,3.80
2024-04-18T07:49:03.867Z,3.90
2024-04-18T07:51:36.575Z,4.00
2024-04-18T07:54:06.603Z,4.10
2024-04-18T07:56:36.988Z,4.00
2024-04-18T07:59:07.631Z,3.90
2024-04-18T08:01:40.007Z,3.90
2024-04-18T08:04:34.352Z,4.00
2024-04-18T08:07:05.748Z,4.00
2024-04-18T08:09:40.213Z,4.10
2024-04-18T08:14:48.396Z,4.20
2024-04-18T08:17:21.522Z,4.30
2024-04-18T08:19:51.449Z,4.30
2024-04-18T08:22:23.966Z,4.40
2024-04-18T08:24:53.918Z,4.60
2024-04-18T08:27:23.976Z,4.60
2024-04-18T08:29:53.943Z,4.60
2024-04-18T08:32:23.923Z,4.80
2024-04-18T08:34:53.904Z,4.80
2024-04-18T08:37:26.366Z,4.90
2024-04-18T08:39:56.186Z,5.00
2024-04-18T08:42:27.305Z,4.90
2024-04-18T08:44:59.012Z,5.00
2024-04-18T08:47:33.381Z,5.10
2024-04-18T08:50:05.722Z,5.10
2024-04-18T08:52:39.987Z,5.20
2024-04-18T08:55:10.238Z,5.40
2024-04-18T08:57:50.078Z,5.60
2024-04-18T09:00:20.151Z,5.80
2024-04-18T09:02:50.839Z,5.90
2024-04-18T09:05:20.819Z,6.00
2024-04-18T09:07:54.124Z,6.10
2024-04-18T09:10:24.867Z,6.40
2024-04-18T09:12:56.838Z,6.50
2024-04-18T09:15:31.728Z,6.50
2024-04-18T09:18:05.680Z,6.50
2024-04-18T09:20:38.245Z,6.50
2024-04-18T09:23:12.843Z,6.50
2024-04-18T09:25:45.855Z,6.30
2024-04-18T09:28:21.679Z,5.60
2024-04-18T09:30:57.424Z,4.90
2024-04-18T09:33:28.958Z,4.40
2024-04-18T09:36:00.962Z,4.00
2024-04-18T09:38:35.805Z,3.60
2024-04-18T09:41:17.859Z,3.40
2024-04-18T09:43:59.322Z,3.30
2024-04-18T09:46:29.662Z,3.40
2024-04-18T09:49:00.295Z,3.50
2024-04-18T09:51:31.674Z,3.60
2024-04-18T09:54:04.906Z,3.80
2024-04-18T09:56:36.006Z,3.90
2024-04-18T09:59:07.469Z,4.10
2024-04-18T10:01:39.917Z,4.10
2024-04-18T10:04:09.953Z,4.20
2024-04-18T10:06:44.881Z,4.20
2024-04-18T10:09:19.716Z,4.20
2024-04-18T10:11:49.738Z,4.20
2024-04-18T10:14:20.394Z,4.20
2024-04-18T10:16:51.906Z,4.20
2024-04-18T10:19:24.168Z,4.20
2024-04-18T10:24:39.008Z,4.00
2024-04-18T10:27:09.958Z,4.00
2024-04-18T10:29:40.191Z,4.00
2024-04-18T10:32:11.702Z,4.00
2024-04-18T10:34:41.550Z,4.10
2024-04-18T10:37:11.364Z,4.30
2024-04-18T10:39:45.483Z,4.40
2024-04-18T10:42:15.686Z,4.50
2024-04-18T10:44:45.566Z,4.60
2024-04-18T10:47:16.179Z,4.80
2024-04-18T10:49:46.104Z,4.90
2024-04-18T10:52:19.201Z,5.00
2024-04-18T10:54:51.644Z,5.00
2024-04-18T10:57:22.426Z,5.10
2024-04-18T10:59:52.319Z,5.20
2024-04-18T11:02:22.209Z,5.30
2024-04-18T11:04:52.071Z,5.50
2024-04-18T11:07:22.540Z,5.70
2024-04-18T11:09:55.054Z,5.90
2024-04-18T11:12:25.265Z,6.10
2024-04-18T11:14:56.039Z,6.30
2024-04-18T11:17:26.381Z,6.30
2024-04-18T11:19:58.093Z,6.40
2024-04-18T11:22:28.821Z,6.50
2024-04-18T11:25:02.799Z,6.60
2024-04-18T11:27:32.785Z,6.70
2024-04-18T11:30:03.059Z,6.90
2024-04-18T11:32:33.804Z,7.20
2024-04-18T11:35:07.982Z,7.40
2024-04-18T11:37:45.403Z,7.70
2024-04-18T11:40:18.334Z,8.10
2024-04-18T11:42:48.463Z,8.40
2024-04-18T11:45:15.982Z,8.50
2024-04-18T11:47:46.050Z,8.70
2024-04-18T11:50:15.991Z,9.10
2024-04-18T11:52:45.793Z,8.70
2024-04-18T11:55:18.426Z,8.30
2024-04-18T11:57:48.328Z,8.10
2024-04-18T12:00:18.338Z,8.00
2024-04-18T12:02:48.720Z,7.80
2024-04-18T12:05:18.749Z,7.60
2024-04-18T12:07:48.683Z,7.40
2024-04-18T12:10:21.509Z,7.20
2024-04-18T12:12:51.310Z,7.00
2024-04-18T12:15:21.591Z,7.00
2024-04-18T12:17:51.569Z,7.00
2024-04-18T12:20:21.405Z,6.90
2024-04-18T12:22:51.261Z,7.10
2024-04-18T12:25:23.774Z,7.30
2024-04-18T12:27:53.616Z,7.20
2024-04-18T12:30:24.409Z,7.20
2024-04-18T12:32:55.142Z,7.10
2024-04-18T12:35:25.044Z,7.10
2024-04-18T12:37:55.564Z,6.90
2024-04-18T12:40:28.122Z,6.90
2024-04-18T12:42:58.897Z,6.90
2024-04-18T12:45:28.782Z,7.20
2024-04-18T12:48:01.624Z,7.50
2024-04-18T12:50:31.590Z,7.70
2024-04-18T12:53:01.436Z,8.00
2024-04-18T12:55:34.518Z,7.90
2024-04-18T12:58:04.399Z,7.70
2024-04-18T13:00:34.350Z,7.60
2024-04-18T13:03:04.580Z,7.40
2024-04-18T13:05:34.436Z,7.20
2024-04-18T13:08:04.531Z,7.10
2024-04-18T13:10:37.023Z,6.80
2024-04-18T13:13:07.320Z,6.60
2024-04-18T13:15:37.781Z,6.50
2024-04-18T13:18:08.655Z,6.60
2024-04-18T13:20:39.143Z,6.80
2024-04-18T13:23:08.955Z,6.80
2024-04-18T13:25:41.487Z,6.80
2024-04-18T13:28:11.535Z,6.80
2024-04-18T13:30:42.273Z,6.80
2024-04-18T13:33:12.276Z,6.90
2024-04-18T13:35:42.219Z,6.90
2024-04-18T13:38:12.112Z,6.90
2024-04-18T13:40:44.539Z,6.90
2024-04-18T13:43:14.378Z,6.90
2024-04-18T13:45:44.408Z,6.70
2024-04-18T13:48:14.316Z,6.60
2024-04-18T13:50:44.350Z,6.60
2024-04-18T13:53:16.762Z,6.60
2024-04-18T13:55:51.795Z,6.50
2024-04-18T13:58:24.147Z,6.10
2024-04-18T14:00:55.491Z,5.90
2024-04-18T14:03:25.562Z,5.90
2024-04-18T14:05:55.446Z,6.10
2024-04-18T14:08:25.300Z,6.10
2024-04-18T14:10:58.166Z,6.40
2024-04-18T14:13:28.057Z,6.70
2024-04-18T14:16:14.888Z,6.90
2024-04-18T14:18:54.173Z,6.90
2024-04-18T14:21:24.722Z,6.90
2024-04-18T14:23:54.708Z,7.20
2024-04-18T14:26:27.414Z,7.60
2024-04-18T14:28:57.345Z,7.80
2024-04-18T14:31:27.167Z,8.10
2024-04-18T14:33:57.907Z,8.40
2024-04-18T14:36:27.842Z,8.90
2024-04-18T14:38:57.771Z,9.20
2024-04-18T14:41:30.221Z,8.90
2024-04-18T14:44:00.267Z,7.60
2024-04-18T14:46:31.138Z,6.60
2024-04-18T14:49:04.294Z,5.90
2024-04-18T14:51:34.578Z,5.40
2024-04-18T14:54:04.605Z,5.10
2024-04-18T14:56:37.112Z,5.00
2024-04-18T14:59:06.961Z,4.90
2024-04-18T15:01:36.833Z,4.90
2024-04-18T15:04:06.975Z,5.00
2024-04-18T15:06:37.325Z,5.10
2024-04-18T15:09:08.451Z,5.20
2024-04-18T15:11:41.004Z,5.30
2024-04-18T15:14:11.314Z,5.40
2024-04-18T15:16:41.123Z,5.50
2024-04-18T15:19:11.046Z,5.70
2024-04-18T15:21:38.670Z,5.70
2024-04-18T15:24:09.232Z,5.60
2024-04-18T15:26:41.615Z,5.60
2024-04-18T15:29:13.077Z,5.70
2024-04-18T15:31:43.317Z,5.80
2024-04-18T15:34:13.173Z,6.00
2024-04-18T15:36:43.109Z,6.00
2024-04-18T15:39:12.939Z,6.00
2024-04-18T15:41:45.738Z,6.00
2024-04-18T15:44:15.577Z,6.00
2024-04-18T15:46:45.479Z,5.80
2024-04-18T15:49:16.977Z,5.60
2024-04-18T15:51:47.180Z,5.30
2024-04-18T15:54:17.078Z,5.10
2024-04-18T15:56:49.534Z,5.10
2024-04-18T15:59:16.858Z,5.00
2024-04-18T16:01:46.692Z,5.00
2024-04-18T16:04:16.626Z,5.10
2024-04-18T16:06:46.633Z,5.20
2024-04-18T16:09:16.859Z,5.20
2024-04-18T16:11:49.360Z,5.10
2024-04-18T16:14:19.237Z,5.10
2024-04-18T16:16:49.156Z,5.30
2024-04-18T16:19:19.425Z,5.40
2024-04-18T16:21:49.572Z,5.60
2024-04-18T16:24:19.528Z,5.70
2024-04-18T16:26:52.080Z,5.80
2024-04-18T16:29:22.260Z,5.80
2024-04-18T16:31:52.143Z,5.90
2024-04-18T16:34:22.047Z,5.90
2024-04-18T16:37:04.547Z,6.00
2024-04-18T16:39:41.740Z,6.10
2024-04-18T16:42:14.283Z,6.10
2024-04-18T16:44:44.387Z,6.20
2024-04-18T16:47:14.485Z,6.20
2024-04-18T16:49:44.771Z,6.30
2024-04-18T16:52:14.768Z,6.30
2024-04-18T16:54:44.698Z,6.30
2024-04-18T16:57:17.288Z,6.30
2024-04-18T16:59:47.186Z,6.30
2024-04-18T17:02:17.062Z,6.20
2024-04-18T17:04:47.138Z,6.20
2024-04-18T17:07:17.374Z,6.20
2024-04-18T17:09:48.459Z,6.00
2024-04-18T17:12:20.946Z,6.00
2024-04-18T17:14:55.602Z,6.00
2024-04-18T17:17:25.539Z,5.90
2024-04-18T17:19:55.378Z,6.00
2024-04-18T17:22:25.301Z,5.90
2024-04-18T17:24:55.194Z,5.90
2024-04-18T17:27:27.872Z,5.80
2024-04-18T17:29:58.012Z,5.80
2024-04-18T17:32:27.898Z,5.70
2024-04-18T17:34:57.788Z,5.70
2024-04-18T17:37:27.668Z,5.70
2024-04-18T17:39:57.569Z,5.70
2024-04-18T17:42:30.130Z,5.80
2024-04-18T17:45:00.146Z,5.80
2024-04-18T17:47:32.555Z,5.80
2024-04-18T17:50:02.595Z,5.70
2024-04-18T17:52:32.440Z,5.70
2024-04-18T17:55:04.900Z,5.60
2024-04-18T17:57:39.405Z,5.60
2024-04-18T18:00:12.379Z,5.50
2024-04-18T18:02:42.372Z,5.50
2024-04-18T18:05:12.620Z,5.50
2024-04-18T18:07:43.806Z,5.40
2024-04-18T18:10:13.662Z,5.30
2024-04-18T18:12:46.317Z,5.20
2024-04-18T18:15:16.338Z,5.20
2024-04-18T18:17:46.278Z,5.10
2024-04-18T18:20:16.124Z,5.20
2024-04-18T18:22:46.007Z,5.20
2024-04-18T18:25:15.845Z,5.10
2024-04-18T18:27:48.514Z,5.10
2024-04-18T18:30:15.973Z,5.00
2024-04-18T18:32:45.939Z,5.00
2024-04-18T18:35:13.254Z,5.00
2024-04-18T18:37:43.077Z,4.80
2024-04-18T18:40:11.558Z,4.80
2024-04-18T18:42:41.572Z,4.60
2024-04-18T18:45:11.831Z,4.60
2024-04-18T18:47:42.163Z,4.60
2024-04-18T18:50:09.464Z,4.60
2024-04-18T18:52:40.243Z,4.50
2024-04-18T18:55:07.950Z,4.40
2024-04-18T18:57:37.857Z,4.30
2024-04-18T19:00:06.490Z,4.40
2024-04-18T19:02:39.000Z,4.40
2024-04-18T19:05:07.094Z,4.40
2024-04-18T19:07:37.058Z,4.40
2024-04-18T19:10:05.503Z,4.40
2024-04-18T19:12:36.720Z,4.40
2024-04-18T19:15:04.915Z,4.40
2024-04-18T19:17:37.874Z,4.40
2024-04-18T19:20:08.532Z,4.40
2024-04-18T19:22:38.380Z,4.30
2024-04-18T19:25:05.852Z,4.30
2024-04-18T19:27:35.904Z,4.30
2024-04-18T19:30:03.343Z,4.20
2024-04-18T19:32:33.312Z,4.20
2024-04-18T19:35:00.646Z,4.20
2024-04-18T19:37:33.186Z,4.20
2024-04-18T19:40:00.508Z,4.20
2024-04-18T19:42:31.011Z,4.20
2024-04-18T19:44:59.162Z,4.20
2024-04-18T19:47:29.065Z,4.20
2024-04-18T19:49:56.450Z,4.00
2024-04-18T19:52:26.930Z,4.00
2024-04-18T19:54:56.836Z,3.90
2024-04-18T19:57:26.889Z,3.90
2024-04-18T19:59:54.180Z,3.90
2024-04-18T20:02:24.152Z,3.80
2024-04-18T20:04:51.447Z,3.80
2024-04-18T20:07:21.633Z,3.60
2024-04-18T20:09:49.021Z,3.60
2024-04-18T20:12:21.838Z,3.50
2024-04-18T20:14:49.511Z,3.50
2024-04-18T20:17:19.498Z,3.50
2024-04-18T20:19:46.773Z,3.40
2024-04-18T20:22:16.643Z,3.40
2024-04-18T20:24:44.028Z,3.40
2024-04-18T20:27:13.954Z,3.50
2024-04-18T20:29:45.552Z,3.50
2024-04-18T20:32:15.493Z,3.30
2024-04-18T20:34:42.859Z,3.30
2024-04-18T20:37:12.826Z,3.40
2024-04-18T20:39:40.257Z,3.40
2024-04-18T20:42:10.390Z,3.40
2024-04-18T20:44:38.160Z,3.40
2024-04-18T20:47:12.020Z,3.40
2024-04-18T20:49:39.313Z,3.30
2024-04-18T20:52:09.590Z,3.40
2024-04-18T20:54:37.052Z,3.40
2024-04-18T20:57:07.225Z,3.40
2024-04-18T20:59:34.697Z,3.30
2024-04-18T21:02:04.837Z,3.40
2024-04-18T21:04:34.833Z,3.50
2024-04-18T21:07:04.798Z,3.40
2024-04-18T21:09:32.311Z,3.40
2024-04-18T21:12:02.249Z,3.40
2024-04-18T21:14:29.696Z,3.30
2024-04-18T21:17:00.081Z,3.30
2024-04-18T21:19:27.732Z,3.40
2024-04-18T21:22:00.277Z,3.40
2024-04-18T21:24:27.665Z,3.50
2024-04-18T21:26:57.606Z,3.40
2024-04-18T21:29:25.028Z,3.50
2024-04-18T21:31:55.068Z,3.40
2024-04-18T21:34:22.732Z,3.40
2024-04-18T21:36:52.744Z,3.40
2024-04-18T21:39:22.741Z,3.50
2024-04-18T21:41:52.709Z,3.60
2024-04-18T21:44:20.053Z,3.60
2024-04-18T21:46:51.054Z,3.50
2024-04-18T21:49:18.383Z,3.50
2024-04-18T21:51:48.325Z,3.40
2024-04-18T21:54:15.778Z,3.40
2024-04-18T21:56:48.336Z,3.30
2024-04-18T21:59:16.779Z,3.30
2024-04-18T22:01:47.048Z,3.30
2024-04-18T22:04:14.659Z,3.30
2024-04-18T22:06:44.914Z,3.30
2024-04-18T22:09:12.859Z,3.30
2024-04-18T22:11:43.840Z,3.40
2024-04-18T22:14:13.757Z,3.40
2024-04-18T22:16:45.683Z,3.30
2024-04-18T22:19:13.151Z,3.30
2024-04-18T22:21:54.299Z,3.30
2024-04-18T22:24:21.797Z,3.20
2024-04-18T22:26:51.691Z,3.20
2024-04-18T22:29:21.650Z,3.20
2024-04-18T22:31:51.573Z,3.20
2024-04-18T22:34:27.555Z,3.20
2024-04-18T22:37:01.177Z,3.20
2024-04-18T22:39:28.855Z,3.30
2024-04-18T22:41:58.872Z,3.20
2024-04-18T22:44:28.854Z,3.20
2024-04-18T22:46:58.784Z,3.10
2024-04-18T22:49:26.333Z,3.10
2024-04-18T22:51:56.270Z,3.20
2024-04-18T22:54:23.679Z,3.20
2024-04-18T22:56:55.001Z,3.20
2024-04-18T22:59:23.331Z,3.20
2024-04-18T23:01:55.988Z,3.20
2024-04-18T23:04:23.518Z,3.30
2024-04-18T23:06:53.529Z,3.30
2024-04-18T23:09:20.960Z,3.30
2024-04-18T23:11:50.905Z,3.30
2024-04-18T23:14:18.450Z,3.30
2024-04-18T23:16:48.444Z,3.30
2024-04-18T23:19:18.426Z,3.40
2024-04-18T23:21:48.457Z,3.30
2024-04-18T23:24:15.947Z,3.30
2024-04-18T23:26:46.066Z,3.30
2024-04-18T23:29:15.252Z,3.30
2024-04-18T23:31:45.320Z,3.30
2024-04-18T23:34:12.894Z,3.30
2024-04-18T23:36:45.529Z,3.30
2024-04-18T23:39:13.398Z,3.30
2024-04-18T23:41:43.928Z,3.20
2024-04-18T23:44:11.455Z,3.30
2024-04-18T23:46:41.753Z,3.40
2024-04-18T23:49:09.127Z,3.40
2024-04-18T23:51:39.272Z,3.40
2024-04-18T23:54:09.468Z,3.40
2024-04-18T23:56:39.581Z,3.40
2024-04-18T23:59:07.056Z,3.40
